White Pigeon, Michigan
Current Conditions -  °F | °C
As of 11:55 PM on Friday 24 Oct 2014 (Local Time) from KIRS Reporting Station
Haze Haze  
Wind Chill: 45°   Ceiling: 11000
Heat Index: 45°   Visibility: 4mi
Dew Point: 45°   Wind: 3mph
Humidity: 100%   Direction: 140°SE
Pressure: 29.96"   Gusts: NA
Location:  41.8°N, 85.64°W
Report Text: KIRS 250355Z AUTO 14003KT 4SM BR OVC110 07/07 A2996 RMK AO2
Loading
Personal Weather Stations






























Interactive Weather Map
Tropical Storm Tracking
New forecast layout! Learn more

10-Day Weather Forecast

Advertisements
Track Severe Weather on mobile